ADDS METAR Data INFO
IDs: Format: Raw Decoded Include TAF

Data at: 0224 UTC 14 Dec 2017

KPMU 140215Z AUTO 23011KT 10SM CLR 11/M04 A2986 RMK AO2 T01091045
KPMU 140155Z AUTO 23012G18KT 10SM CLR 11/M04 A2986 RMK AO2 T01081041
KPMU 140135Z AUTO 22010G15KT 10SM CLR 10/M04 A2986 RMK AO2 T01031036
KPMU 140115Z AUTO 22008KT 10SM CLR 10/M03 A2986 RMK AO2 T00981035
KPMU 140055Z AUTO 22007KT 10SM CLR 10/M04 A2986 RMK AO2 T01011036
KPMU 140035Z AUTO 22008KT 10SM CLR 10/M04 A2986 RMK AO2 T01041038
KPMU 140015Z AUTO 22007KT 10SM CLR 11/M04 A2985 RMK AO2 T01081040
KPMU 132355Z AUTO 21010KT 10SM CLR 11/M04 A2985 RMK AO2 T01131044 10143 20113
KPMU 132335Z AUTO 22012G16KT 10SM CLR 12/M04 A2985 RMK AO2 T01171045
KPMU 132315Z AUTO 21014KT 10SM CLR 12/M04 A2984 RMK AO2 T01151044
KPMU 132255Z AUTO 22010G20KT 10SM CLR 12/M04 A2984 RMK AO2 T01201043
KPMU 132235Z AUTO 22012KT 10SM CLR 13/M04 A2985 RMK AO2 T01261044
KPMU 132215Z AUTO 22015G22KT 10SM CLR 13/M05 A2984 RMK AO2 T01321048
KPMU 132155Z AUTO 22016G26KT 10SM CLR 14/M05 A2984 RMK AO2 T01361055
KPMU 132135Z AUTO 21018G22KT 10SM CLR 14/M06 A2984 RMK AO2 T01381057
KPMU 132115Z AUTO 23015G25KT 10SM CLR 14/M06 A2985 RMK AO2 T01401060
KPMU 132055Z AUTO 22017G25KT 10SM CLR 14/M06 A2984 RMK AO2 T01421061
KPMU 132035Z AUTO 21018G25KT 10SM CLR 14/M06 A2986 RMK AO2 T01401058
KPMU 132015Z AUTO 22015G23KT 10SM CLR 14/M06 A2986 RMK AO2 T01411057
KPMU 131955Z AUTO 23017G25KT 10SM CLR 14/M06 A2988 RMK AO2 T01361058
KPMU 131935Z AUTO 22017G21KT 10SM CLR 13/M06 A2990 RMK AO2 T01321056
KPMU 131915Z AUTO 22016G21KT 10SM CLR 13/M05 A2991 RMK AO2 T01301051
KPMU 131855Z AUTO 21016G23KT 10SM CLR 13/M06 A2992 RMK AO2 T01271056
KPMU 131835Z AUTO 21011KT 10SM CLR 12/M06 A2993 RMK AO2 T01241058
KPMU 131815Z AUTO 19010KT 10SM CLR 12/M06 A2993 RMK AO2 T01191063
KPMU 131755Z AUTO 20013KT 10SM CLR 12/M07 A2995 RMK AO2 T01151070 10115 21060
KPMU 131735Z AUTO 22014G18KT 10SM CLR 11/M07 A2997 RMK AO2 T01071068
KPMU 131715Z AUTO 21015G18KT 10SM CLR 10/M07 A3000 RMK AO2 T00991066
KPMU 131655Z AUTO 22015KT 10SM CLR 09/M07 A3001 RMK AO2 T00871069
KPMU 131635Z AUTO 21014KT 10SM CLR 09/M06 A3003 RMK AO2 T00871065
KPMU 131615Z AUTO 20012G17KT 10SM CLR 08/M06 A3005 RMK AO2 T00771058
KPMU 131555Z AUTO 21011KT 10SM CLR 07/M05 A3006 RMK AO2 T00671050
KPMU 131535Z AUTO 21010KT 10SM CLR 06/M04 A3007 RMK AO2 T00561041
KPMU 131515Z AUTO 21009KT 10SM CLR 04/M03 A3006 RMK AO2 T00431035
KPMU 131455Z AUTO 20008KT 10SM CLR 03/M03 A3007 RMK AO2 T00301029
KPMU 131435Z AUTO 21007KT 10SM CLR 01/M02 A3007 RMK AO2 T00141025
KPMU 131415Z AUTO 00000KT 10SM CLR M02/M03 A3007 RMK AO2 T10191033
KPMU 131355Z AUTO 00000KT 10SM CLR M04/M05 A3008 RMK AO2 T10371050
KPMU 131335Z AUTO 00000KT 10SM CLR M05/M06 A3008 RMK AO2 T10481059
KPMU 131315Z AUTO 00000KT 10SM CLR M05/M06 A3009 RMK AO2 T10551065
KPMU 131255Z AUTO 00000KT 10SM CLR M05/M07 A3009 RMK AO2 T10551066
KPMU 131235Z AUTO 00000KT 10SM CLR M05/M07 A3010 RMK AO2 T10551066
KPMU 131215Z AUTO 00000KT 10SM CLR M05/M06 A3009 RMK AO2 T10511062
KPMU 131155Z AUTO 00000KT 10SM CLR M05/M07 A3010 RMK AO2 T10551066 11033 21056
KPMU 131135Z AUTO 00000KT 10SM CLR M05/M06 A3010 RMK AO2 T10511063
KPMU 131115Z AUTO 00000KT 10SM CLR M05/M06 A3009 RMK AO2 T10511062
KPMU 131055Z AUTO 00000KT 10SM CLR M05/M06 A3011 RMK AO2 T10511061
KPMU 131035Z AUTO 00000KT 10SM CLR M05/M06 A3011 RMK AO2 T10501060
KPMU 131015Z AUTO 00000KT 10SM CLR M05/M06 A3012 RMK AO2 T10471058
KPMU 130955Z AUTO 00000KT 10SM CLR M05/M06 A3012 RMK AO2 T10481059
KPMU 130935Z AUTO 00000KT 10SM CLR M05/M06 A3012 RMK AO2 T10471059
KPMU 130915Z AUTO 00000KT 10SM CLR M04/M06 A3013 RMK AO2 T10451057
KPMU 130855Z AUTO 00000KT 10SM CLR M04/M06 A3014 RMK AO2 T10451057
KPMU 130835Z AUTO 00000KT 10SM CLR M04/M05 A3014 RMK AO2 T10411055
KPMU 130815Z AUTO 00000KT 10SM CLR M04/M06 A3014 RMK AO2 T10411056
KPMU 130755Z AUTO 00000KT 10SM CLR M04/M05 A3014 RMK AO2 T10381050
KPMU 130735Z AUTO 00000KT 10SM CLR M04/M05 A3014 RMK AO2 T10401052
KPMU 130715Z AUTO 00000KT 10SM CLR M04/M05 A3015 RMK AO2 T10401052
KPMU 130655Z AUTO 00000KT 10SM CLR M04/M05 A3015 RMK AO2 T10421054
KPMU 130635Z AUTO 00000KT 10SM CLR M04/M05 A3015 RMK AO2 T10371050
KPMU 130615Z AUTO 00000KT 10SM CLR M03/M05 A3016 RMK AO2 T10351048
KPMU 130555Z AUTO 00000KT 10SM CLR M03/M05 A3017 RMK AO2 T10321047 10045 21034 401141034
KPMU 130535Z AUTO 00000KT 10SM CLR M03/M05 A3017 RMK AO2 T10311049
KPMU 130515Z AUTO 00000KT 10SM CLR M03/M05 A3018 RMK AO2 T10301047
KPMU 130455Z AUTO 00000KT 10SM CLR M03/M05 A3018 RMK AO2 T10281048
KPMU 130440Z AUTO 00000KT 10SM CLR M03/M05 A3018 RMK AO2 T10261047
KPMU 130415Z AUTO 00000KT 10SM CLR M03/M05 A3018 RMK AO2 T10281049
KPMU 130355Z AUTO 00000KT 10SM CLR M03/M05 A3019 RMK AO2 T10261049
KPMU 130335Z AUTO 00000KT 10SM CLR M02/M05 A3018 RMK AO2 T10201049
KPMU 130315Z AUTO 00000KT 10SM CLR M01/M05 A3018 RMK AO2 T10151049
KPMU 130255Z AUTO 00000KT 10SM CLR M02/M05 A3018 RMK AO2 T10161050
KPMU 130235Z AUTO 00000KT 10SM CLR 00/M05 A3019 RMK AO2 T10041050
KPMU 130215Z AUTO 00000KT 10SM CLR M01/M05 A3019 RMK AO2 T10111053
KPMU 130155Z AUTO 00000KT 10SM CLR 01/M06 A3019 RMK AO2 T00111059
KPMU 130135Z AUTO 00000KT 10SM CLR 02/M06 A3019 RMK AO2 T00231058
KPMU 130115Z AUTO 00000KT 10SM CLR 02/M06 A3019 RMK AO2 T00231058
KPMU 130055Z AUTO 33004KT 10SM CLR 03/M06 A3019 RMK AO2 T00281058
KPMU 130035Z AUTO 00000KT 10SM CLR 04/M06 A3019 RMK AO2 T00391060
KPMU 130015Z AUTO 00000KT 10SM CLR 04/M06 A3018 RMK AO2 T00431060
KPMU 122355Z AUTO 00000KT 10SM CLR 05/M06 A3018 RMK AO2 T00451056 10107 20045
KPMU 122335Z AUTO 32003KT 10SM CLR 05/M06 A3018 RMK AO2 T00511058
KPMU 122315Z AUTO 00000KT 10SM CLR 06/M06 A3017 RMK AO2 T00561057
KPMU 122255Z AUTO 32003KT 10SM CLR 07/M06 A3017 RMK AO2 T00651056
KPMU 122235Z AUTO 32004KT 10SM CLR 07/M06 A3017 RMK AO2 T00741059
KPMU 122215Z AUTO 00000KT 10SM CLR 08/M05 A3017 RMK AO2 T00811053
KPMU 122155Z AUTO 31004KT 10SM CLR 09/M06 A3017 RMK AO2 T00871059
KPMU 122135Z AUTO 34009KT 10SM CLR 09/M05 A3017 RMK AO2 T00931051
KPMU 122115Z AUTO 31004KT 10SM CLR 10/M05 A3017 RMK AO2 T00951051
KPMU 122055Z AUTO 32005G15KT 10SM CLR 10/M05 A3017 RMK AO2 T01001050
KPMU 122035Z AUTO 31004KT 10SM CLR 10/M05 A3017 RMK AO2 T01011047
KPMU 122015Z AUTO 33009KT 10SM CLR 11/M05 A3016 RMK AO2 T01051051
KPMU 121955Z AUTO 33006KT 10SM CLR 10/M04 A3017 RMK AO2 T01031045
KPMU 121935Z AUTO 35011G15KT 10SM CLR 11/M05 A3017 RMK AO2 T01051049
KPMU 121915Z AUTO 32009KT 10SM CLR 10/M04 A3018 RMK AO2 T01041041
KPMU 121855Z AUTO 35011G14KT 10SM CLR 10/M03 A3018 RMK AO2 T01041035
KPMU 121835Z AUTO 34009G15KT 10SM CLR 10/M04 A3018 RMK AO2 T01031037
KPMU 121815Z AUTO 31006G15KT 10SM CLR 10/M03 A3019 RMK AO2 T01001032
KPMU 121755Z AUTO 30004KT 10SM CLR 10/M03 A3019 RMK AO2 T01001028 10104 20064
KPMU 121735Z AUTO 33007G15KT 10SM CLR 10/M03 A3020 RMK AO2 T00991030
KPMU 121715Z AUTO 35008G15KT 10SM CLR 10/M03 A3021 RMK AO2 T00991028
KPMU 121655Z AUTO 35007G16KT 10SM CLR 10/M02 A3022 RMK AO2 T00961024
KPMU 121635Z AUTO 32010G16KT 10SM CLR 09/M02 A3021 RMK AO2 T00911023
KPMU 121615Z AUTO 33010G17KT 290V360 10SM CLR 09/M02 A3022 RMK AO2 T00911021
KPMU 121555Z AUTO 32011G19KT 10SM CLR 08/M02 A3022 RMK AO2 T00841023
KPMU 121535Z AUTO 36009G17KT 320V040 10SM CLR 09/M02 A3021 RMK AO2 T00871019
KPMU 121515Z AUTO 34010G21KT 10SM CLR 08/M02 A3020 RMK AO2 T00831018
KPMU 121455Z AUTO 33009G15KT 10SM CLR 08/M02 A3019 RMK AO2 T00821016
KPMU 121435Z AUTO 33011G16KT 10SM CLR 08/M01 A3019 RMK AO2 T00801014